Time;durP1;ratioP1;P1;durP2;ratioP2;P2;SDS_P1;SDS_P2;PMS_P1;PMS_P2;Temp;Humidity;BMP_temperature;BMP_pressure;BME280_temperature;BME280_humidity;BME280_pressure;Samples;Min_cycle;Max_cycle;Signal;HPM_P1;HPM_P2
2022/02/07 00:00:02;;;;;;;;;;;2.70;99.90;;;;;;4981444;28;20023;-76
2022/02/07 00:02:48;;;;;;;11.13;1.27;;;2.70;99.90;;;;;;4980505;28;19973;-75
2022/02/07 00:05:16;;;;;;;6.65;0.80;;;2.70;99.90;;;;;;4985527;28;20031;-73
2022/02/07 00:07:41;;;;;;;8.07;1.40;;;2.70;99.90;;;;;;4982302;28;20042;-76
2022/02/07 00:10:08;;;;;;;6.78;1.50;;;2.70;99.90;;;;;;4993589;28;20065;-76
2022/02/07 00:12:33;;;;;;;7.47;1.08;;;2.70;99.90;;;;;;4979889;28;20023;-77
2022/02/07 00:14:59;;;;;;;12.50;1.60;;;2.70;99.90;;;;;;4982220;28;20654;-76
2022/02/07 00:17:25;;;;;;;10.13;1.45;;;2.70;99.90;;;;;;4983406;28;20019;-76
2022/02/07 00:19:50;;;;;;;15.55;1.90;;;2.80;99.90;;;;;;4983251;28;20041;-76
2022/02/07 00:22:16;;;;;;;16.83;1.55;;;2.70;99.90;;;;;;4983889;28;20057;-73
2022/02/07 00:24:42;;;;;;;7.95;1.40;;;2.80;99.90;;;;;;4982906;28;20082;-73
2022/02/07 00:27:07;;;;;;;9.15;1.20;;;2.80;99.90;;;;;;4983115;28;20061;-73
2022/02/07 00:29:35;;;;;;;9.55;1.10;;;2.80;99.90;;;;;;4984068;28;20026;-75
2022/02/07 00:32:04;;;;;;;10.95;1.23;;;2.80;99.90;;;;;;4986195;28;20031;-72
2022/02/07 00:34:30;;;;;;;17.13;2.72;;;2.80;99.90;;;;;;4985203;28;20023;-71
2022/02/07 00:36:56;;;;;;;14.13;1.30;;;2.80;99.90;;;;;;4987661;28;20073;-72
2022/02/07 00:39:32;;;;;;;7.35;1.33;;;2.80;99.90;;;;;;4982154;28;20018;-72
2022/02/07 00:42:03;;;;;;;11.50;1.05;;;2.80;99.90;;;;;;4977421;28;20468;-74
2022/02/07 00:44:31;;;;;;;11.57;1.45;;;2.80;99.90;;;;;;4981962;28;20038;-73
2022/02/07 00:47:06;;;;;;;5.68;1.00;;;2.80;99.90;;;;;;4981026;28;20030;-75
2022/02/07 00:49:33;;;;;;;11.95;1.35;;;2.80;99.90;;;;;;4981690;28;20476;-74
2022/02/07 00:51:58;;;;;;;10.25;1.60;;;2.80;99.90;;;;;;4982335;28;20041;-77
2022/02/07 00:54:25;;;;;;;9.82;1.40;;;2.80;99.90;;;;;;4963078;28;20023;-77
2022/02/07 00:56:51;;;;;;;13.23;1.42;;;2.80;99.90;;;;;;4980130;28;20045;-75
2022/02/07 00:59:17;;;;;;;8.20;1.20;;;2.80;99.90;;;;;;4985203;28;20042;-75
2022/02/07 01:01:42;;;;;;;12.30;1.50;;;2.80;99.90;;;;;;4985810;28;20076;-75
2022/02/07 01:04:08;;;;;;;13.02;1.50;;;2.90;99.90;;;;;;4980579;28;20038;-75
2022/02/07 01:06:34;;;;;;;12.77;1.27;;;2.80;99.90;;;;;;4982405;28;20031;-74
2022/02/07 01:19:33;;;;;;;9.65;1.40;;;2.50;99.90;;;;;;4979406;28;20110;-77
2022/02/07 01:46:35;;;;;;;9.10;1.40;;;2.70;99.90;;;;;;4981224;28;20041;-76
2022/02/07 01:54:11;;;;;;;15.25;1.60;;;2.80;99.90;;;;;;4983734;28;20022;-74
2022/02/07 01:56:37;;;;;;;21.10;3.22;;;2.80;99.90;;;;;;4982906;28;20053;-76
2022/02/07 01:59:03;;;;;;;22.30;2.00;;;2.70;99.90;;;;;;4983571;28;20041;-76
2022/02/07 02:01:29;;;;;;;14.98;2.20;;;2.70;99.90;;;;;;4983685;28;20476;-76
2022/02/07 02:03:55;;;;;;;18.67;2.67;;;2.70;99.90;;;;;;4985946;28;20022;-76
2022/02/07 02:06:22;;;;;;;13.57;1.67;;;2.60;99.90;;;;;;4980480;28;20081;-75
2022/02/07 02:08:49;;;;;;;9.48;1.80;;;2.60;99.90;;;;;;4977885;28;20105;-74
2022/02/07 02:11:14;;;;;;;25.80;2.33;;;2.60;99.90;;;;;;4981489;28;20097;-76
2022/02/07 02:16:27;;;;;;;18.65;2.10;;;2.60;99.90;;;;;;4987421;28;20018;-73
2022/02/07 02:22:30;;;;;;;15.57;2.30;;;2.60;99.90;;;;;;4979242;28;20023;-74
2022/02/07 02:33:58;;;;;;;12.63;1.83;;;2.50;99.90;;;;;;4984902;28;20461;-76
2022/02/07 02:46:34;;;;;;;18.30;2.33;;;2.70;99.90;;;;;;4982678;28;20023;-76
2022/02/07 02:49:02;;;;;;;13.32;1.48;;;2.70;99.90;;;;;;4983132;28;20085;-76
2022/02/07 02:51:29;;;;;;;19.15;2.20;;;2.70;99.90;;;;;;4982126;28;20034;-74
2022/02/07 02:53:55;;;;;;;17.98;1.85;;;2.70;99.90;;;;;;4985078;28;20396;-74
2022/02/07 02:56:22;;;;;;;24.55;2.40;;;2.70;99.90;;;;;;4985670;28;20022;-75
2022/02/07 02:58:47;;;;;;;14.90;2.25;;;2.70;99.90;;;;;;4985920;28;20034;-73
2022/02/07 03:01:13;;;;;;;12.63;1.40;;;2.70;99.90;;;;;;4982218;28;20027;-76
2022/02/07 03:03:39;;;;;;;15.45;1.70;;;2.70;99.90;;;;;;4986695;28;20054;-75
2022/02/07 03:06:05;;;;;;;17.73;1.58;;;2.70;99.90;;;;;;4979207;28;20481;-75
2022/02/07 03:08:30;;;;;;;13.73;1.50;;;2.70;99.90;;;;;;4984158;28;20377;-73
2022/02/07 03:11:11;;;;;;;14.90;1.33;;;2.70;99.90;;;;;;4986187;28;20034;-75
2022/02/07 03:13:50;;;;;;;10.85;1.30;;;2.70;99.90;;;;;;4977955;28;20094;-75
2022/02/07 03:16:38;;;;;;;10.00;1.25;;;2.70;99.90;;;;;;4981889;28;20109;-76
2022/02/07 03:19:09;;;;;;;6.88;1.30;;;2.70;99.90;;;;;;4984204;28;20598;-75
2022/02/07 03:21:35;;;;;;;12.73;2.35;;;2.60;99.90;;;;;;4981016;28;20424;-76
2022/02/07 03:24:01;;;;;;;8.68;1.20;;;2.70;99.90;;;;;;4983881;28;20030;-77
2022/02/07 03:26:29;;;;;;;18.15;1.52;;;2.60;99.90;;;;;;4984754;28;20035;-76
2022/02/07 03:28:55;;;;;;;12.07;1.27;;;2.70;99.90;;;;;;4981831;28;20085;-76
2022/02/07 03:31:21;;;;;;;10.48;1.13;;;2.70;99.90;;;;;;4979840;28;20077;-77
2022/02/07 03:33:47;;;;;;;11.55;1.23;;;2.70;99.90;;;;;;4978445;28;20022;-76
2022/02/07 03:36:14;;;;;;;12.50;1.45;;;2.70;99.90;;;;;;4986613;28;20424;-76
2022/02/07 03:38:40;;;;;;;9.43;1.33;;;2.70;99.90;;;;;;4985414;28;20108;-77
2022/02/07 03:41:06;;;;;;;10.15;1.40;;;2.70;99.90;;;;;;4985046;28;20050;-74
2022/02/07 03:43:32;;;;;;;11.18;1.02;;;2.70;99.90;;;;;;4971137;28;20038;-75
2022/02/07 03:45:58;;;;;;;13.10;1.30;;;2.70;99.90;;;;;;4984834;28;20129;-76
2022/02/07 03:48:23;;;;;;;6.38;0.90;;;2.70;99.90;;;;;;4985623;28;20507;-74
2022/02/07 03:50:49;;;;;;;17.08;1.30;;;2.80;99.90;;;;;;4982019;28;20027;-74
2022/02/07 03:53:15;;;;;;;13.32;1.55;;;2.80;99.90;;;;;;4983977;28;20085;-77
2022/02/07 03:55:41;;;;;;;15.90;2.03;;;2.80;99.90;;;;;;4982360;28;20031;-76
2022/02/07 03:58:07;;;;;;;11.25;2.22;;;2.80;99.90;;;;;;4985357;28;20044;-77
2022/02/07 04:00:35;;;;;;;13.38;1.77;;;2.80;99.90;;;;;;4984929;28;20056;-76
2022/02/07 04:03:05;;;;;;;21.90;2.00;;;2.80;99.90;;;;;;4979876;28;20378;-75
2022/02/07 04:08:08;;;;;;;14.82;1.65;;;2.80;99.90;;;;;;4982703;28;20396;-74
2022/02/07 04:10:40;;;;;;;10.55;1.55;;;2.80;99.90;;;;;;4985599;28;20030;-74
2022/02/07 04:13:08;;;;;;;11.02;1.60;;;2.80;99.90;;;;;;4982163;28;20102;-75
2022/02/07 04:15:34;;;;;;;12.35;2.17;;;2.90;99.90;;;;;;4980743;28;20053;-75
2022/02/07 04:18:04;;;;;;;18.38;1.90;;;2.90;99.90;;;;;;4979142;28;20022;-76
2022/02/07 04:20:29;;;;;;;12.52;1.50;;;2.90;99.90;;;;;;4984987;28;20058;-76
2022/02/07 04:22:55;;;;;;;14.60;2.13;;;2.80;99.90;;;;;;4980756;28;20065;-76
2022/02/07 04:25:21;;;;;;;14.05;1.42;;;2.90;99.90;;;;;;4976360;28;20026;-77
2022/02/07 04:27:46;;;;;;;9.80;1.70;;;2.90;99.90;;;;;;4982691;28;20497;-77
2022/02/07 04:30:12;;;;;;;16.10;1.17;;;2.90;99.90;;;;;;4986448;28;20037;-75
2022/02/07 04:32:38;;;;;;;10.65;1.30;;;2.90;99.90;;;;;;4982735;28;20018;-75
2022/02/07 04:35:05;;;;;;;6.85;1.45;;;2.90;99.90;;;;;;4983569;28;20027;-75
2022/02/07 04:37:31;;;;;;;12.27;1.42;;;2.90;99.90;;;;;;4982009;28;20125;-76
2022/02/07 04:39:56;;;;;;;10.18;1.52;;;2.90;99.90;;;;;;4983994;28;21073;-75
2022/02/07 04:42:24;;;;;;;12.57;1.10;;;2.90;99.90;;;;;;4959869;28;20117;-77
2022/02/07 04:45:16;;;;;;;8.85;1.15;;;2.80;99.90;;;;;;4978267;28;20121;-76
2022/02/07 05:03:44;;;;;;;13.82;1.10;;;2.70;99.90;;;;;;4979900;28;20030;-76
2022/02/07 05:14:23;;;;;;;12.25;2.10;;;2.80;99.90;;;;;;4985135;28;20030;-77
2022/02/07 05:16:52;;;;;;;10.00;1.42;;;2.90;99.90;;;;;;4979206;28;20417;-76
2022/02/07 05:19:19;;;;;;;17.95;1.92;;;2.90;99.90;;;;;;4995305;28;20118;-76
2022/02/07 05:21:45;;;;;;;15.35;1.98;;;3.00;99.90;;;;;;4981392;28;20042;-76
2022/02/07 05:24:10;;;;;;;19.17;1.60;;;3.10;99.90;;;;;;4981722;28;20035;-76
2022/02/07 05:26:36;;;;;;;11.57;1.30;;;3.10;99.90;;;;;;4981642;28;20030;-74
2022/02/07 05:29:03;;;;;;;14.25;1.45;;;3.10;99.90;;;;;;4979940;28;20388;-77
2022/02/07 05:31:29;;;;;;;22.02;3.67;;;3.20;99.90;;;;;;4978630;28;20034;-76
2022/02/07 05:33:55;;;;;;;11.88;1.45;;;3.20;99.90;;;;;;4983164;28;20082;-75
2022/02/07 05:36:20;;;;;;;14.27;2.22;;;3.20;99.90;;;;;;4984820;28;20026;-75
2022/02/07 05:38:49;;;;;;;16.88;1.88;;;3.20;99.90;;;;;;4979630;28;20109;-76
2022/02/07 05:41:17;;;;;;;16.83;2.22;;;3.20;99.90;;;;;;4986569;28;20047;-76
2022/02/07 05:43:46;;;;;;;18.67;2.45;;;3.20;99.90;;;;;;4979530;28;20041;-76
2022/02/07 05:46:11;;;;;;;11.13;2.00;;;3.20;99.90;;;;;;4981680;28;20034;-76
2022/02/07 05:48:37;;;;;;;17.35;1.90;;;3.20;99.90;;;;;;4982321;28;20046;-76
2022/02/07 05:51:03;;;;;;;19.83;2.13;;;3.30;99.90;;;;;;4979389;28;20018;-74
2022/02/07 05:53:32;;;;;;;17.95;2.33;;;3.30;99.90;;;;;;4980972;28;20183;-77
2022/02/07 05:55:58;;;;;;;14.07;2.70;;;3.30;99.90;;;;;;4982011;28;20123;-77
2022/02/07 05:58:24;;;;;;;19.95;2.22;;;3.30;99.90;;;;;;4979959;28;20102;-76
2022/02/07 06:00:51;;;;;;;19.38;2.80;;;3.30;99.90;;;;;;4980533;28;20602;-77
2022/02/07 06:03:18;;;;;;;23.02;2.60;;;3.30;99.90;;;;;;5002420;28;20034;-75
2022/02/07 06:05:44;;;;;;;22.20;2.17;;;3.40;99.90;;;;;;4984318;28;21515;-77
2022/02/07 06:08:10;;;;;;;17.35;2.28;;;3.40;99.90;;;;;;4984899;28;20058;-77
2022/02/07 06:10:35;;;;;;;25.50;2.75;;;3.40;99.90;;;;;;4981924;28;20023;-76
2022/02/07 06:13:01;;;;;;;21.10;2.90;;;3.40;99.90;;;;;;4977012;28;20027;-77
2022/02/07 06:15:27;;;;;;;27.52;2.63;;;3.40;99.90;;;;;;4984204;28;20091;-78
2022/02/07 06:17:57;;;;;;;29.70;2.42;;;3.40;99.90;;;;;;4990211;28;20031;-78
2022/02/07 06:20:24;;;;;;;13.98;2.70;;;3.40;99.90;;;;;;4986552;28;20038;-77
2022/02/07 06:22:52;;;;;;;17.75;2.63;;;3.50;99.90;;;;;;4985354;28;20054;-75
2022/02/07 06:25:18;;;;;;;21.75;2.50;;;3.40;99.90;;;;;;4984049;28;20033;-74
2022/02/07 06:27:44;;;;;;;21.65;3.97;;;3.50;99.90;;;;;;4984269;28;20030;-74
2022/02/07 06:30:12;;;;;;;14.77;2.50;;;3.50;99.90;;;;;;4981667;28;20037;-74
2022/02/07 06:32:41;;;;;;;15.48;2.40;;;3.50;99.90;;;;;;4981309;28;20578;-72
2022/02/07 06:35:08;;;;;;;18.55;2.45;;;3.50;99.90;;;;;;4980974;28;20035;-74
2022/02/07 06:37:34;;;;;;;19.10;2.80;;;3.50;99.90;;;;;;4983528;28;20019;-73
2022/02/07 06:39:59;;;;;;;23.60;2.42;;;3.60;99.90;;;;;;4986469;28;20054;-74
2022/02/07 06:42:25;;;;;;;26.15;2.95;;;3.60;99.90;;;;;;4982426;28;20108;-73
2022/02/07 06:44:51;;;;;;;31.80;3.58;;;3.60;99.90;;;;;;4981734;28;20034;-71
2022/02/07 06:47:16;;;;;;;18.20;2.22;;;3.60;99.90;;;;;;4977336;28;20038;-71
2022/02/07 06:49:42;;;;;;;27.35;3.58;;;3.60;99.90;;;;;;4988827;28;20037;-74
2022/02/07 06:52:08;;;;;;;26.27;4.20;;;3.60;99.90;;;;;;4983996;28;20041;-72
2022/02/07 06:54:34;;;;;;;22.45;3.35;;;3.60;99.90;;;;;;4981572;28;20053;-72
2022/02/07 06:57:01;;;;;;;27.17;3.10;;;3.60;99.90;;;;;;4985597;28;20076;-74
2022/02/07 06:59:29;;;;;;;19.80;2.67;;;3.60;99.90;;;;;;4985793;28;20022;-74
2022/02/07 07:01:55;;;;;;;23.70;2.78;;;3.60;99.90;;;;;;4988220;28;20030;-71
2022/02/07 07:04:22;;;;;;;29.90;3.70;;;3.60;99.90;;;;;;4980913;28;20078;-73
2022/02/07 07:06:48;;;;;;;28.48;3.00;;;3.70;99.90;;;;;;4983607;28;20489;-74
2022/02/07 07:09:14;;;;;;;16.92;2.90;;;3.70;99.90;;;;;;4990914;28;20066;-72
2022/02/07 07:11:41;;;;;;;26.27;3.40;;;3.70;99.90;;;;;;4986895;28;20083;-72
2022/02/07 07:14:28;;;;;;;25.40;3.58;;;3.70;99.90;;;;;;4986567;28;20400;-73
2022/02/07 07:16:54;;;;;;;24.13;3.80;;;3.70;99.90;;;;;;4985058;28;20054;-72
2022/02/07 07:19:20;;;;;;;23.52;3.47;;;3.70;99.90;;;;;;4982504;28;20094;-72
2022/02/07 07:21:47;;;;;;;19.60;3.47;;;3.70;99.90;;;;;;4985121;28;20060;-72
2022/02/07 07:24:14;;;;;;;28.55;3.38;;;3.60;99.90;;;;;;4986019;28;20117;-72
2022/02/07 07:26:40;;;;;;;18.77;3.40;;;3.60;99.90;;;;;;4984643;28;20034;-75
2022/02/07 07:29:13;;;;;;;25.02;3.70;;;3.60;99.90;;;;;;4986871;28;20095;-75
2022/02/07 07:31:48;;;;;;;21.90;3.10;;;3.70;99.90;;;;;;4970394;28;20652;-75
2022/02/07 07:34:16;;;;;;;19.52;3.75;;;3.70;99.90;;;;;;4984560;28;20061;-75
2022/02/07 07:36:43;;;;;;;33.58;4.63;;;3.70;99.90;;;;;;4986202;28;20049;-75
2022/02/07 07:39:13;;;;;;;22.95;3.78;;;3.60;99.90;;;;;;4984952;28;20027;-76
2022/02/07 07:41:44;;;;;;;23.70;3.22;;;3.70;99.90;;;;;;4982353;28;20160;-76
2022/02/07 07:44:10;;;;;;;;;;;3.60;99.90;;;;;;4980460;28;20030;-75
2022/02/07 07:46:37;;;;;;;23.50;3.90;;;3.60;99.90;;;;;;4981687;28;20323;-75
2022/02/07 07:49:43;;;;;;;24.45;3.30;;;3.60;99.90;;;;;;4982214;28;20054;-75
2022/02/07 07:52:02;;;;;;;27.02;3.30;;;3.60;99.90;;;;;;4974644;28;20061;-75
2022/02/07 08:02:27;;;;;;;20.48;3.75;;;3.70;99.90;;;;;;4977442;28;20366;-74
2022/02/07 08:04:55;;;;;;;30.20;4.18;;;3.80;99.90;;;;;;4979503;28;20849;-75
2022/02/07 08:07:25;;;;;;;27.73;3.35;;;3.80;99.90;;;;;;4984648;28;20500;-75
2022/02/07 08:12:17;;;;;;;26.52;3.65;;;3.80;99.90;;;;;;4982201;28;20101;-75
2022/02/07 08:14:43;;;;;;;21.67;3.15;;;3.80;99.90;;;;;;4979778;28;20031;-76
2022/02/07 08:17:09;;;;;;;21.88;3.15;;;3.80;99.90;;;;;;4981058;28;20034;-75
2022/02/07 08:19:37;;;;;;;21.13;3.05;;;3.80;99.90;;;;;;4977608;28;20640;-75
2022/02/07 08:22:03;;;;;;;21.60;3.70;;;3.90;99.90;;;;;;4987430;28;20091;-73
2022/02/07 08:24:29;;;;;;;30.73;3.92;;;3.90;99.90;;;;;;4992593;28;20026;-75
2022/02/07 08:26:57;;;;;;;24.52;3.58;;;3.90;99.90;;;;;;4980497;28;20457;-75
2022/02/07 08:29:23;;;;;;;23.38;3.85;;;3.90;99.90;;;;;;4982036;28;20034;-75
2022/02/07 08:31:49;;;;;;;24.73;3.75;;;4.00;99.90;;;;;;4978980;28;20378;-75
2022/02/07 08:34:15;;;;;;;19.83;3.10;;;4.00;99.90;;;;;;4980333;28;20122;-75
2022/02/07 08:36:41;;;;;;;18.42;3.53;;;4.00;99.90;;;;;;4980649;28;20477;-76
2022/02/07 08:39:08;;;;;;;28.08;3.70;;;4.10;99.90;;;;;;4980239;28;20035;-75
2022/02/07 08:41:35;;;;;;;21.17;3.03;;;4.20;99.90;;;;;;4983580;28;20030;-75
2022/02/07 08:44:00;;;;;;;25.30;4.15;;;4.20;99.90;;;;;;4974994;28;20042;-75
2022/02/07 08:46:26;;;;;;;30.95;4.78;;;4.30;99.90;;;;;;4981014;28;20203;-76
2022/02/07 08:48:52;;;;;;;20.58;3.22;;;4.30;99.90;;;;;;4981949;28;20026;-76
2022/02/07 08:51:19;;;;;;;23.75;4.13;;;4.30;99.90;;;;;;4981268;28;20049;-75
2022/02/07 08:53:47;;;;;;;22.13;4.28;;;4.30;99.90;;;;;;4984254;28;20105;-75
2022/02/07 08:56:15;;;;;;;22.98;4.00;;;4.40;99.90;;;;;;4965324;28;20034;-74
2022/02/07 08:58:45;;;;;;;25.77;4.05;;;4.40;99.90;;;;;;4982254;28;20022;-75
2022/02/07 09:01:17;;;;;;;25.63;3.60;;;4.50;99.90;;;;;;4979275;28;20118;-76
2022/02/07 09:04:18;;;;;;;27.40;4.45;;;4.60;99.90;;;;;;4981627;28;20023;-76
2022/02/07 09:06:56;;;;;;;24.65;3.97;;;4.70;99.90;;;;;;4984940;28;20034;-75
2022/02/07 09:09:22;;;;;;;19.27;3.10;;;4.80;99.90;;;;;;4967416;28;20031;-75
2022/02/07 09:11:47;;;;;;;32.42;5.05;;;4.90;99.90;;;;;;4977579;28;20842;-75
2022/02/07 09:14:21;;;;;;;32.75;5.30;;;5.00;99.90;;;;;;4983362;28;20036;-75
2022/02/07 09:16:46;;;;;;;26.63;4.35;;;5.00;99.90;;;;;;4983970;28;20030;-76
2022/02/07 09:19:15;;;;;;;32.15;4.72;;;5.00;99.90;;;;;;4992226;28;20062;-75
2022/02/07 09:21:42;;;;;;;24.10;4.45;;;5.00;99.90;;;;;;4980192;28;20082;-75
2022/02/07 09:24:08;;;;;;;34.85;5.05;;;5.00;99.90;;;;;;4979638;28;20037;-76
2022/02/07 09:26:34;;;;;;;26.88;5.35;;;5.00;99.90;;;;;;4980805;28;20030;-76
2022/02/07 09:29:00;;;;;;;32.60;5.05;;;5.00;99.90;;;;;;4981419;28;20038;-75
2022/02/07 09:31:26;;;;;;;26.98;4.25;;;5.00;99.90;;;;;;4984635;28;20488;-75
2022/02/07 09:33:53;;;;;;;19.50;3.63;;;5.00;99.90;;;;;;4987712;28;20536;-75
2022/02/07 09:36:21;;;;;;;22.42;3.70;;;4.90;99.90;;;;;;4983998;28;20031;-75
2022/02/07 09:38:48;;;;;;;20.42;3.03;;;4.90;99.90;;;;;;4980388;28;20050;-75
2022/02/07 09:41:17;;;;;;;16.05;2.92;;;4.90;99.90;;;;;;4981404;28;21379;-75
2022/02/07 09:43:46;;;;;;;17.27;3.35;;;5.00;99.90;;;;;;4978298;28;20118;-76
2022/02/07 09:46:18;;;;;;;14.85;2.47;;;5.10;99.90;;;;;;4975081;28;20022;-74
2022/02/07 09:48:45;;;;;;;23.52;3.42;;;5.00;99.90;;;;;;4982140;28;20072;-75
2022/02/07 09:51:12;;;;;;;15.63;3.10;;;5.10;99.90;;;;;;4987435;28;20502;-75
2022/02/07 09:53:39;;;;;;;18.45;3.40;;;5.20;99.90;;;;;;4990561;28;20068;-76
2022/02/07 09:56:07;;;;;;;27.33;3.38;;;5.20;99.90;;;;;;4983580;28;20026;-75
2022/02/07 09:58:37;;;;;;;19.13;3.55;;;5.20;99.90;;;;;;4981900;28;20465;-74
2022/02/07 10:01:07;;;;;;;15.98;2.83;;;5.20;99.90;;;;;;4988063;28;20026;-75
2022/02/07 10:04:02;;;;;;;18.98;2.90;;;5.20;99.90;;;;;;4992674;28;20560;-75
2022/02/07 10:09:15;;;;;;;19.40;2.50;;;5.20;99.90;;;;;;4988918;28;20108;-75
2022/02/07 10:12:03;;;;;;;24.15;3.08;;;5.20;99.90;;;;;;4982738;28;20033;-75
2022/02/07 10:14:46;;;;;;;22.27;3.53;;;5.20;99.90;;;;;;4988626;28;20030;-76
2022/02/07 10:17:30;;;;;;;22.90;5.40;;;5.20;99.90;;;;;;4985839;28;20031;-75
2022/02/07 10:39:28;;;;;;;27.63;3.90;;;5.60;99.90;;;;;;4982729;28;20030;-74
2022/02/07 10:44:59;;;;;;;28.05;4.53;;;5.40;99.90;;;;;;4986338;28;20027;-77
2022/02/07 10:47:46;;;;;;;21.40;3.83;;;5.50;99.90;;;;;;4980889;28;20031;-75
2022/02/07 10:50:11;;;;;;;20.40;4.03;;;5.60;99.90;;;;;;4986538;28;21848;-75
2022/02/07 10:52:52;;;;;;;21.92;4.03;;;5.60;99.90;;;;;;4993235;28;20034;-75
2022/02/07 10:55:32;;;;;;;26.67;3.92;;;5.70;99.90;;;;;;4969778;28;20362;-76
2022/02/07 10:58:01;;;;;;;26.92;5.13;;;5.80;99.90;;;;;;4989771;28;20080;-74
2022/02/07 11:00:36;;;;;;;21.73;3.30;;;5.90;99.90;;;;;;4983777;28;20030;-75
2022/02/07 11:03:10;;;;;;;31.92;4.90;;;5.90;99.90;;;;;;4962673;28;20066;-74
2022/02/07 11:05:46;;;;;;;25.95;4.05;;;5.90;99.90;;;;;;4988819;28;20054;-74
2022/02/07 11:08:28;;;;;;;21.85;3.33;;;6.00;99.90;;;;;;4983658;28;20027;-74
2022/02/07 11:16:22;;;;;;;21.70;3.55;;;6.10;99.90;;;;;;4984982;28;20074;-76
2022/02/07 11:19:21;;;;;;;13.10;2.92;;;6.30;99.90;;;;;;4985973;28;20098;-75
2022/02/07 11:22:31;;;;;;;12.60;3.83;;;6.30;99.90;;;;;;4981821;28;20377;-75
2022/02/07 11:28:14;;;;;;;21.92;3.45;;;6.40;99.90;;;;;;4983948;28;20923;-76
2022/02/07 11:30:46;;;;;;;18.52;2.95;;;6.50;99.90;;;;;;4986905;28;20480;-75
2022/02/07 11:33:31;;;;;;;21.20;3.22;;;6.50;99.90;;;;;;4987277;28;20026;-74
2022/02/07 11:35:58;;;;;;;19.83;2.80;;;6.60;99.90;;;;;;4980922;28;20510;-75
2022/02/07 11:38:24;;;;;;;19.83;4.00;;;6.50;99.90;;;;;;4980336;28;20058;-75
2022/02/07 11:41:00;;;;;;;19.73;3.00;;;6.50;99.90;;;;;;4978928;28;20482;-75
2022/02/07 11:43:29;;;;;;;18.50;2.88;;;6.70;99.90;;;;;;4988526;28;20023;-75
2022/02/07 11:46:12;;;;;;;22.77;3.10;;;6.90;99.90;;;;;;4988162;28;20030;-76
2022/02/07 11:48:57;;;;;;;17.85;2.78;;;6.90;99.90;;;;;;4983247;28;20042;-76
2022/02/07 11:51:23;;;;;;;19.67;2.88;;;6.80;99.90;;;;;;4989079;28;20037;-77
2022/02/07 11:53:54;;;;;;;14.18;2.92;;;6.80;99.90;;;;;;4973775;28;20027;-74
2022/02/07 11:56:25;;;;;;;17.02;2.72;;;6.80;99.90;;;;;;4984686;28;20055;-74
2022/02/07 11:58:57;;;;;;;14.77;3.17;;;6.80;99.90;;;;;;4978516;28;20035;-73
2022/02/07 12:01:47;;;;;;;16.60;2.88;;;6.80;99.90;;;;;;4977687;28;20499;-74
2022/02/07 12:04:22;;;;;;;9.27;2.67;;;6.70;99.90;;;;;;4983431;28;20026;-75
2022/02/07 12:06:48;;;;;;;11.30;2.25;;;6.70;99.90;;;;;;4982032;28;20034;-75
2022/02/07 12:09:23;;;;;;;19.35;2.60;;;6.60;99.90;;;;;;4986226;28;20034;-74
2022/02/07 12:11:49;;;;;;;12.80;2.35;;;6.60;99.90;;;;;;4986464;28;20473;-74
2022/02/07 12:14:30;;;;;;;10.85;2.30;;;6.40;99.90;;;;;;4987412;28;20053;-74
2022/02/07 12:16:57;;;;;;;16.25;2.58;;;6.30;99.90;;;;;;4977972;28;20031;-72
2022/02/07 12:19:40;;;;;;;19.73;3.42;;;6.20;99.90;;;;;;4984193;28;20057;-74
2022/02/07 12:22:16;;;;;;;14.27;2.80;;;6.30;99.90;;;;;;4977555;28;20409;-73
2022/02/07 12:24:58;;;;;;;14.32;2.47;;;6.20;99.90;;;;;;4987300;28;20388;-73
2022/02/07 12:27:29;;;;;;;16.55;2.45;;;6.20;99.90;;;;;;4984145;28;20428;-73
2022/02/07 12:30:17;;;;;;;17.15;3.05;;;6.20;99.90;;;;;;4987682;28;20447;-73
2022/02/07 12:32:41;;;;;;;19.75;2.58;;;6.20;99.90;;;;;;4982118;28;20034;-72
2022/02/07 12:35:09;;;;;;;14.02;3.00;;;6.20;99.90;;;;;;4975981;28;20042;-75
2022/02/07 12:37:38;;;;;;;21.83;2.90;;;6.20;99.90;;;;;;4989911;28;20554;-72
2022/02/07 12:40:06;;;;;;;21.38;3.75;;;6.20;99.90;;;;;;4981648;28;20046;-72
2022/02/07 12:42:34;;;;;;;18.83;3.50;;;6.20;99.90;;;;;;4998505;23;20419;-78
2022/02/07 12:45:02;;;;;;;17.98;2.97;;;6.20;99.90;;;;;;4970824;28;20031;-77
2022/02/07 12:47:28;;;;;;;20.13;3.05;;;6.20;99.90;;;;;;4978262;28;20139;-76
2022/02/07 12:49:56;;;;;;;18.17;2.67;;;6.20;99.90;;;;;;4977867;28;20035;-76
2022/02/07 12:52:36;;;;;;;22.65;3.70;;;6.20;99.90;;;;;;4961250;28;20023;-75
2022/02/07 12:55:02;;;;;;;28.30;3.58;;;6.20;99.90;;;;;;4979925;28;20034;-75
2022/02/07 12:57:32;;;;;;;22.63;3.28;;;6.30;99.90;;;;;;4981111;28;20097;-74
2022/02/07 12:59:58;;;;;;;24.50;2.75;;;6.20;99.90;;;;;;4980499;28;20369;-75
2022/02/07 13:02:29;;;;;;;16.67;2.97;;;6.20;99.90;;;;;;4976561;28;20265;-75
2022/02/07 13:04:54;;;;;;;21.83;3.83;;;6.30;99.90;;;;;;4978475;28;20034;-75
2022/02/07 13:07:21;;;;;;;9.18;2.03;;;6.30;99.90;;;;;;4979742;28;20503;-75
2022/02/07 13:09:53;;;;;;;8.38;2.10;;;6.00;99.90;;;;;;4978617;28;20061;-75
2022/02/07 13:13:15;;;;;;;11.98;1.80;;;5.50;99.90;;;;;;4978989;28;20053;-75
2022/02/07 13:15:13;;;;;;;13.18;1.90;;;5.10;99.90;;;;;;4976069;28;20043;-75
2022/02/07 13:17:39;;;;;;;16.67;2.20;;;4.80;99.90;;;;;;4981850;28;20023;-75
2022/02/07 13:20:08;;;;;;;12.13;2.38;;;4.70;99.90;;;;;;4962014;28;20034;-75
2022/02/07 13:22:34;;;;;;;20.75;2.67;;;4.60;99.90;;;;;;4963545;28;20129;-75
2022/02/07 13:25:00;;;;;;;10.68;2.10;;;4.60;99.90;;;;;;4979876;28;20142;-75
2022/02/07 13:27:26;;;;;;;17.27;2.05;;;4.70;99.90;;;;;;4981345;28;20030;-75
2022/02/07 13:30:12;;;;;;;10.90;2.33;;;4.70;99.90;;;;;;5001861;28;20045;-75
2022/02/07 13:32:40;;;;;;;11.35;1.92;;;4.70;99.90;;;;;;4908191;29;20402;-75
2022/02/07 13:35:13;;;;;;;14.32;2.03;;;4.70;99.90;;;;;;4894379;29;20122;-76
2022/02/07 13:37:40;;;;;;;47.10;16.55;;;4.80;99.90;;;;;;4893094;29;20044;-75
2022/02/07 13:40:18;;;;;;;20.48;5.10;;;4.80;99.90;;;;;;4908177;29;20036;-75
2022/02/07 13:42:46;;;;;;;28.17;13.80;;;4.80;99.90;;;;;;4907581;29;20674;-76
2022/02/07 13:45:25;;;;;;;23.80;3.42;;;4.80;99.90;;;;;;4910012;29;20028;-76
2022/02/07 13:47:53;;;;;;;11.85;1.90;;;4.80;99.90;;;;;;4893365;29;20478;-76
2022/02/07 13:50:30;;;;;;;17.60;2.75;;;4.80;99.90;;;;;;4924147;29;20048;-75
2022/02/07 13:53:02;;;;;;;18.08;3.05;;;4.90;99.90;;;;;;4894601;29;20407;-75
2022/02/07 13:55:35;;;;;;;17.20;2.53;;;4.90;99.90;;;;;;4893897;29;20116;-75
2022/02/07 13:58:13;;;;;;;16.17;2.70;;;4.90;99.90;;;;;;4909066;29;20046;-76
2022/02/07 14:00:54;;;;;;;20.27;2.72;;;5.00;99.90;;;;;;4893056;29;20024;-75
2022/02/07 14:03:27;;;;;;;24.45;2.70;;;5.00;99.90;;;;;;4908005;29;20444;-75
2022/02/07 14:06:15;;;;;;;18.55;2.75;;;5.10;99.90;;;;;;4892859;29;20063;-75
2022/02/07 14:08:42;;;;;;;17.63;3.33;;;5.10;99.90;;;;;;4907841;28;20043;-75
2022/02/07 14:11:10;;;;;;;25.55;3.30;;;5.10;99.90;;;;;;4977401;28;20027;-75
2022/02/07 14:13:37;;;;;;;21.25;3.22;;;5.20;99.90;;;;;;4967986;28;20031;-75
2022/02/07 14:16:05;;;;;;;21.70;3.17;;;5.20;99.90;;;;;;4977571;28;20027;-76
2022/02/07 14:18:32;;;;;;;20.73;3.08;;;5.20;99.90;;;;;;4979037;28;20026;-75
2022/02/07 14:21:07;;;;;;;12.75;3.03;;;5.20;99.90;;;;;;4987247;28;20043;-75
2022/02/07 14:23:34;;;;;;;17.40;3.33;;;5.30;99.90;;;;;;4991201;28;20030;-75
2022/02/07 14:26:00;;;;;;;17.27;2.85;;;5.40;99.90;;;;;;4987860;28;20510;-75
2022/02/07 14:28:27;;;;;;;21.17;4.13;;;5.40;99.90;;;;;;4961877;28;20038;-75
2022/02/07 14:30:54;;;;;;;23.90;3.88;;;5.40;99.90;;;;;;4977851;28;20027;-75
2022/02/07 14:33:20;;;;;;;21.58;3.47;;;5.40;99.90;;;;;;4984222;28;20033;-75
2022/02/07 14:35:45;;;;;;;23.60;3.30;;;5.40;99.90;;;;;;4977984;28;20023;-76
2022/02/07 14:38:12;;;;;;;17.60;2.85;;;5.50;99.90;;;;;;4980634;28;20468;-75
2022/02/07 14:40:41;;;;;;;15.55;2.60;;;5.50;99.90;;;;;;4979555;28;20081;-75
2022/02/07 14:43:08;;;;;;;15.45;3.20;;;5.50;99.90;;;;;;4982638;28;20109;-76
2022/02/07 14:45:42;;;;;;;19.35;3.65;;;5.60;99.90;;;;;;4982498;28;20046;-76
2022/02/07 14:48:08;;;;;;;18.45;2.83;;;5.60;99.90;;;;;;4979307;28;20038;-75
2022/02/07 14:50:34;;;;;;;17.85;2.63;;;5.70;99.90;;;;;;4979143;28;20032;-75
2022/02/07 14:53:01;;;;;;;16.35;2.05;;;5.60;99.90;;;;;;4980645;28;20088;-74
2022/02/07 14:55:28;;;;;;;17.13;3.33;;;5.50;99.90;;;;;;4981801;28;20027;-75
2022/02/07 14:57:54;;;;;;;12.05;2.72;;;5.40;99.90;;;;;;4979349;28;20042;-74
2022/02/07 15:00:24;;;;;;;18.73;2.92;;;5.30;99.90;;;;;;4980769;28;20034;-75
2022/02/07 15:02:51;;;;;;;10.27;2.22;;;5.20;99.90;;;;;;4984049;28;20500;-74
2022/02/07 15:05:18;;;;;;;8.50;2.92;;;5.10;99.90;;;;;;4990346;28;20101;-75
2022/02/07 15:07:44;;;;;;;17.25;2.95;;;5.00;99.90;;;;;;4988348;28;20053;-75
2022/02/07 15:10:11;;;;;;;16.55;2.83;;;4.90;99.90;;;;;;4991366;28;20081;-75
2022/02/07 15:12:36;;;;;;;14.63;2.90;;;4.80;99.90;;;;;;4982273;28;20056;-75
2022/02/07 15:15:03;;;;;;;26.00;3.72;;;4.80;99.90;;;;;;4980272;28;20058;-74